sensor_id;sensor_type;location;lat;lon;timestamp;P1;durP1;ratioP1;P2;durP2;ratioP2
39452;SDS011;25154;-33.684;151.102;2023-04-03T00:04:12;3.63;;;1.40;;
39452;SDS011;25154;-33.684;151.102;2023-04-03T00:09:15;8.85;;;1.30;;
39452;SDS011;25154;-33.684;151.102;2023-04-03T00:14:18;8.93;;;1.58;;
39452;SDS011;25154;-33.684;151.102;2023-04-03T00:19:21;3.78;;;1.35;;
39452;SDS011;25154;-33.684;151.102;2023-04-03T00:24:23;7.53;;;1.85;;
39452;SDS011;25154;-33.684;151.102;2023-04-03T00:29:26;6.68;;;1.50;;
39452;SDS011;25154;-33.684;151.102;2023-04-03T00:34:29;3.95;;;1.10;;
39452;SDS011;25154;-33.684;151.102;2023-04-03T00:39:32;8.88;;;1.35;;
39452;SDS011;25154;-33.684;151.102;2023-04-03T00:49:37;2.83;;;0.93;;
39452;SDS011;25154;-33.684;151.102;2023-04-03T00:54:41;3.13;;;1.00;;
39452;SDS011;25154;-33.684;151.102;2023-04-03T00:59:49;4.32;;;0.90;;
39452;SDS011;25154;-33.684;151.102;2023-04-03T01:04:56;28.90;;;1.35;;
39452;SDS011;25154;-33.684;151.102;2023-04-03T01:10:01;3.70;;;0.85;;
39452;SDS011;25154;-33.684;151.102;2023-04-03T01:15:12;2.28;;;0.80;;
39452;SDS011;25154;-33.684;151.102;2023-04-03T01:25:56;4.13;;;0.82;;
39452;SDS011;25154;-33.684;151.102;2023-04-03T01:36:27;2.50;;;0.63;;
39452;SDS011;25154;-33.684;151.102;2023-04-03T01:41:31;5.10;;;1.10;;
39452;SDS011;25154;-33.684;151.102;2023-04-03T01:46:34;2.33;;;0.70;;
39452;SDS011;25154;-33.684;151.102;2023-04-03T01:51:38;3.78;;;0.95;;
39452;SDS011;25154;-33.684;151.102;2023-04-03T01:56:41;4.25;;;1.00;;
39452;SDS011;25154;-33.684;151.102;2023-04-03T02:01:44;4.30;;;0.80;;
39452;SDS011;25154;-33.684;151.102;2023-04-03T02:06:47;3.55;;;0.80;;
39452;SDS011;25154;-33.684;151.102;2023-04-03T02:11:50;4.65;;;1.00;;
39452;SDS011;25154;-33.684;151.102;2023-04-03T02:16:53;6.28;;;1.63;;
39452;SDS011;25154;-33.684;151.102;2023-04-03T02:21:55;2.72;;;0.68;;
39452;SDS011;25154;-33.684;151.102;2023-04-03T02:27:01;4.57;;;0.80;;
39452;SDS011;25154;-33.684;151.102;2023-04-03T02:32:04;5.05;;;1.17;;
39452;SDS011;25154;-33.684;151.102;2023-04-03T02:37:10;4.47;;;1.25;;
39452;SDS011;25154;-33.684;151.102;2023-04-03T02:42:14;4.40;;;1.20;;
39452;SDS011;25154;-33.684;151.102;2023-04-03T02:47:17;3.45;;;0.90;;
39452;SDS011;25154;-33.684;151.102;2023-04-03T02:52:20;2.92;;;0.98;;
39452;SDS011;25154;-33.684;151.102;2023-04-03T02:57:23;4.25;;;1.00;;
39452;SDS011;25154;-33.684;151.102;2023-04-03T03:02:26;6.10;;;1.25;;
39452;SDS011;25154;-33.684;151.102;2023-04-03T03:07:28;6.32;;;1.20;;
39452;SDS011;25154;-33.684;151.102;2023-04-03T03:12:31;5.72;;;1.02;;
39452;SDS011;25154;-33.684;151.102;2023-04-03T03:17:34;6.40;;;1.85;;
39452;SDS011;25154;-33.684;151.102;2023-04-03T03:22:37;6.70;;;1.17;;
39452;SDS011;25154;-33.684;151.102;2023-04-03T03:27:39;5.55;;;1.30;;
39452;SDS011;25154;-33.684;151.102;2023-04-03T03:32:42;6.18;;;1.00;;
39452;SDS011;25154;-33.684;151.102;2023-04-03T03:37:45;7.03;;;0.95;;
39452;SDS011;25154;-33.684;151.102;2023-04-03T03:42:47;5.05;;;1.15;;
39452;SDS011;25154;-33.684;151.102;2023-04-03T03:47:50;3.63;;;0.80;;
39452;SDS011;25154;-33.684;151.102;2023-04-03T03:52:55;4.88;;;1.08;;
39452;SDS011;25154;-33.684;151.102;2023-04-03T03:57:58;3.60;;;0.90;;
39452;SDS011;25154;-33.684;151.102;2023-04-03T04:08:06;6.05;;;1.40;;
39452;SDS011;25154;-33.684;151.102;2023-04-03T04:13:09;4.47;;;1.00;;
39452;SDS011;25154;-33.684;151.102;2023-04-03T04:18:12;4.22;;;1.20;;
39452;SDS011;25154;-33.684;151.102;2023-04-03T04:23:16;8.55;;;1.40;;
39452;SDS011;25154;-33.684;151.102;2023-04-03T04:28:19;7.13;;;1.33;;
39452;SDS011;25154;-33.684;151.102;2023-04-03T04:33:22;6.07;;;1.25;;
39452;SDS011;25154;-33.684;151.102;2023-04-03T04:38:25;4.80;;;1.00;;
39452;SDS011;25154;-33.684;151.102;2023-04-03T04:43:28;6.05;;;1.30;;
39452;SDS011;25154;-33.684;151.102;2023-04-03T04:48:30;5.80;;;1.25;;
39452;SDS011;25154;-33.684;151.102;2023-04-03T04:53:34;3.90;;;0.95;;
39452;SDS011;25154;-33.684;151.102;2023-04-03T04:58:36;5.65;;;1.00;;
39452;SDS011;25154;-33.684;151.102;2023-04-03T05:03:39;8.75;;;1.35;;
39452;SDS011;25154;-33.684;151.102;2023-04-03T05:08:42;5.30;;;1.20;;
39452;SDS011;25154;-33.684;151.102;2023-04-03T05:13:45;8.77;;;1.38;;
39452;SDS011;25154;-33.684;151.102;2023-04-03T05:18:48;7.15;;;1.30;;
39452;SDS011;25154;-33.684;151.102;2023-04-03T05:23:50;5.53;;;1.10;;
39452;SDS011;25154;-33.684;151.102;2023-04-03T05:28:53;6.13;;;1.30;;
39452;SDS011;25154;-33.684;151.102;2023-04-03T05:33:56;6.07;;;1.35;;
39452;SDS011;25154;-33.684;151.102;2023-04-03T05:39:00;3.55;;;0.90;;
39452;SDS011;25154;-33.684;151.102;2023-04-03T05:44:02;7.35;;;1.10;;
39452;SDS011;25154;-33.684;151.102;2023-04-03T05:49:05;4.03;;;1.20;;
39452;SDS011;25154;-33.684;151.102;2023-04-03T05:54:19;7.97;;;1.25;;
39452;SDS011;25154;-33.684;151.102;2023-04-03T05:59:27;6.72;;;1.13;;
39452;SDS011;25154;-33.684;151.102;2023-04-03T06:04:30;5.40;;;1.02;;
39452;SDS011;25154;-33.684;151.102;2023-04-03T06:09:33;5.32;;;1.08;;
39452;SDS011;25154;-33.684;151.102;2023-04-03T06:14:36;6.15;;;1.23;;
39452;SDS011;25154;-33.684;151.102;2023-04-03T06:19:38;5.53;;;1.00;;
39452;SDS011;25154;-33.684;151.102;2023-04-03T06:24:41;5.93;;;1.30;;
39452;SDS011;25154;-33.684;151.102;2023-04-03T06:29:44;6.90;;;1.05;;
39452;SDS011;25154;-33.684;151.102;2023-04-03T06:34:47;5.72;;;1.08;;
39452;SDS011;25154;-33.684;151.102;2023-04-03T06:39:50;6.18;;;1.02;;
39452;SDS011;25154;-33.684;151.102;2023-04-03T06:44:53;5.25;;;0.82;;
39452;SDS011;25154;-33.684;151.102;2023-04-03T06:49:55;6.78;;;1.40;;
39452;SDS011;25154;-33.684;151.102;2023-04-03T06:54:58;5.13;;;1.00;;
39452;SDS011;25154;-33.684;151.102;2023-04-03T07:00:02;6.38;;;1.27;;
39452;SDS011;25154;-33.684;151.102;2023-04-03T07:05:06;4.75;;;0.93;;
39452;SDS011;25154;-33.684;151.102;2023-04-03T07:10:09;7.45;;;1.27;;
39452;SDS011;25154;-33.684;151.102;2023-04-03T07:15:13;9.35;;;1.25;;
39452;SDS011;25154;-33.684;151.102;2023-04-03T07:20:16;7.85;;;1.25;;
39452;SDS011;25154;-33.684;151.102;2023-04-03T07:25:21;11.07;;;2.13;;
39452;SDS011;25154;-33.684;151.102;2023-04-03T07:30:24;6.32;;;1.10;;
39452;SDS011;25154;-33.684;151.102;2023-04-03T07:35:27;6.00;;;1.48;;
39452;SDS011;25154;-33.684;151.102;2023-04-03T07:40:30;7.65;;;1.17;;
39452;SDS011;25154;-33.684;151.102;2023-04-03T07:45:34;6.88;;;1.05;;
39452;SDS011;25154;-33.684;151.102;2023-04-03T07:50:39;5.93;;;1.00;;
39452;SDS011;25154;-33.684;151.102;2023-04-03T07:55:42;6.82;;;1.33;;
39452;SDS011;25154;-33.684;151.102;2023-04-03T08:00:48;6.28;;;1.15;;
39452;SDS011;25154;-33.684;151.102;2023-04-03T08:05:51;8.18;;;1.23;;
39452;SDS011;25154;-33.684;151.102;2023-04-03T08:10:54;8.00;;;1.30;;
39452;SDS011;25154;-33.684;151.102;2023-04-03T08:16:08;9.82;;;1.70;;
39452;SDS011;25154;-33.684;151.102;2023-04-03T08:21:17;9.87;;;3.47;;
39452;SDS011;25154;-33.684;151.102;2023-04-03T08:26:20;21.92;;;6.68;;
39452;SDS011;25154;-33.684;151.102;2023-04-03T08:31:23;22.63;;;8.63;;
39452;SDS011;25154;-33.684;151.102;2023-04-03T08:36:27;28.02;;;10.05;;
39452;SDS011;25154;-33.684;151.102;2023-04-03T08:41:37;12.40;;;4.23;;
39452;SDS011;25154;-33.684;151.102;2023-04-03T08:52:11;16.08;;;4.65;;
39452;SDS011;25154;-33.684;151.102;2023-04-03T08:57:39;17.50;;;5.22;;
39452;SDS011;25154;-33.684;151.102;2023-04-03T09:02:51;9.52;;;3.05;;
39452;SDS011;25154;-33.684;151.102;2023-04-03T09:08:01;8.70;;;2.65;;
39452;SDS011;25154;-33.684;151.102;2023-04-03T09:13:30;12.35;;;2.67;;
39452;SDS011;25154;-33.684;151.102;2023-04-03T09:18:45;9.50;;;2.33;;
39452;SDS011;25154;-33.684;151.102;2023-04-03T09:23:57;10.55;;;2.58;;
39452;SDS011;25154;-33.684;151.102;2023-04-03T09:29:04;12.98;;;2.55;;
39452;SDS011;25154;-33.684;151.102;2023-04-03T09:34:22;10.47;;;2.00;;
39452;SDS011;25154;-33.684;151.102;2023-04-03T09:39:26;8.75;;;1.90;;
39452;SDS011;25154;-33.684;151.102;2023-04-03T09:44:31;10.23;;;2.58;;
39452;SDS011;25154;-33.684;151.102;2023-04-03T09:49:39;11.73;;;1.92;;
39452;SDS011;25154;-33.684;151.102;2023-04-03T09:54:42;10.40;;;1.77;;
39452;SDS011;25154;-33.684;151.102;2023-04-03T09:59:56;9.07;;;1.77;;
39452;SDS011;25154;-33.684;151.102;2023-04-03T10:05:01;10.00;;;1.77;;
39452;SDS011;25154;-33.684;151.102;2023-04-03T10:10:17;10.45;;;2.40;;
39452;SDS011;25154;-33.684;151.102;2023-04-03T10:15:23;4.78;;;0.95;;
39452;SDS011;25154;-33.684;151.102;2023-04-03T10:20:40;8.07;;;2.10;;
39452;SDS011;25154;-33.684;151.102;2023-04-03T10:31:29;4.95;;;1.23;;
39452;SDS011;25154;-33.684;151.102;2023-04-03T10:42:00;5.03;;;1.58;;
39452;SDS011;25154;-33.684;151.102;2023-04-03T10:47:19;8.85;;;1.17;;
39452;SDS011;25154;-33.684;151.102;2023-04-03T10:57:58;8.20;;;1.33;;
39452;SDS011;25154;-33.684;151.102;2023-04-03T11:03:06;8.10;;;1.98;;
39452;SDS011;25154;-33.684;151.102;2023-04-03T11:19:02;8.15;;;1.83;;
39452;SDS011;25154;-33.684;151.102;2023-04-03T11:24:29;11.00;;;1.52;;
39452;SDS011;25154;-33.684;151.102;2023-04-03T11:29:35;7.85;;;1.33;;
39452;SDS011;25154;-33.684;151.102;2023-04-03T11:34:46;10.93;;;1.67;;
39452;SDS011;25154;-33.684;151.102;2023-04-03T11:39:55;8.10;;;1.48;;
39452;SDS011;25154;-33.684;151.102;2023-04-03T11:50:40;10.50;;;1.40;;
39452;SDS011;25154;-33.684;151.102;2023-04-03T12:00:51;6.97;;;1.20;;
39452;SDS011;25154;-33.684;151.102;2023-04-03T12:11:28;16.25;;;1.35;;
39452;SDS011;25154;-33.684;151.102;2023-04-03T12:27:03;6.95;;;1.30;;
39452;SDS011;25154;-33.684;151.102;2023-04-03T12:43:50;6.45;;;1.55;;
39452;SDS011;25154;-33.684;151.102;2023-04-03T12:48:58;9.70;;;1.55;;
39452;SDS011;25154;-33.684;151.102;2023-04-03T12:54:03;7.70;;;1.20;;
39452;SDS011;25154;-33.684;151.102;2023-04-03T13:04:28;5.43;;;1.30;;
39452;SDS011;25154;-33.684;151.102;2023-04-03T13:09:34;5.43;;;1.30;;
39452;SDS011;25154;-33.684;151.102;2023-04-03T13:14:37;11.35;;;1.33;;
39452;SDS011;25154;-33.684;151.102;2023-04-03T13:19:41;6.63;;;1.27;;
39452;SDS011;25154;-33.684;151.102;2023-04-03T13:24:48;6.45;;;1.30;;
39452;SDS011;25154;-33.684;151.102;2023-04-03T13:29:57;14.07;;;1.40;;
39452;SDS011;25154;-33.684;151.102;2023-04-03T13:35:23;8.43;;;1.30;;
39452;SDS011;25154;-33.684;151.102;2023-04-03T13:40:48;11.52;;;1.33;;
39452;SDS011;25154;-33.684;151.102;2023-04-03T13:45:58;7.88;;;1.30;;
39452;SDS011;25154;-33.684;151.102;2023-04-03T13:51:25;4.63;;;1.00;;
39452;SDS011;25154;-33.684;151.102;2023-04-03T13:56:33;10.13;;;1.33;;
39452;SDS011;25154;-33.684;151.102;2023-04-03T14:06:54;12.95;;;1.45;;
39452;SDS011;25154;-33.684;151.102;2023-04-03T14:12:00;8.98;;;1.10;;
39452;SDS011;25154;-33.684;151.102;2023-04-03T14:17:13;9.93;;;1.27;;
39452;SDS011;25154;-33.684;151.102;2023-04-03T14:22:21;10.25;;;1.52;;
39452;SDS011;25154;-33.684;151.102;2023-04-03T14:27:39;9.73;;;1.05;;
39452;SDS011;25154;-33.684;151.102;2023-04-03T14:32:44;8.95;;;1.25;;
39452;SDS011;25154;-33.684;151.102;2023-04-03T14:37:47;8.45;;;1.67;;
39452;SDS011;25154;-33.684;151.102;2023-04-03T14:42:51;9.00;;;1.73;;
39452;SDS011;25154;-33.684;151.102;2023-04-03T14:47:55;12.13;;;1.35;;
39452;SDS011;25154;-33.684;151.102;2023-04-03T14:52:58;12.55;;;1.50;;
39452;SDS011;25154;-33.684;151.102;2023-04-03T14:58:05;8.75;;;1.02;;
39452;SDS011;25154;-33.684;151.102;2023-04-03T15:03:13;8.80;;;1.13;;
39452;SDS011;25154;-33.684;151.102;2023-04-03T15:08:21;10.00;;;1.95;;
39452;SDS011;25154;-33.684;151.102;2023-04-03T15:13:26;13.07;;;1.50;;
39452;SDS011;25154;-33.684;151.102;2023-04-03T15:18:31;6.43;;;1.42;;
39452;SDS011;25154;-33.684;151.102;2023-04-03T15:23:38;7.53;;;1.30;;
39452;SDS011;25154;-33.684;151.102;2023-04-03T15:28:41;7.55;;;1.17;;
39452;SDS011;25154;-33.684;151.102;2023-04-03T15:33:47;7.00;;;1.00;;
39452;SDS011;25154;-33.684;151.102;2023-04-03T15:38:50;10.50;;;1.48;;
39452;SDS011;25154;-33.684;151.102;2023-04-03T15:43:53;7.47;;;1.20;;
39452;SDS011;25154;-33.684;151.102;2023-04-03T15:48:56;6.45;;;1.10;;
39452;SDS011;25154;-33.684;151.102;2023-04-03T15:53:58;4.28;;;1.05;;
39452;SDS011;25154;-33.684;151.102;2023-04-03T15:59:03;10.75;;;1.75;;
39452;SDS011;25154;-33.684;151.102;2023-04-03T16:04:07;7.38;;;1.40;;
39452;SDS011;25154;-33.684;151.102;2023-04-03T16:09:11;6.20;;;1.02;;
39452;SDS011;25154;-33.684;151.102;2023-04-03T16:14:14;11.82;;;1.60;;
39452;SDS011;25154;-33.684;151.102;2023-04-03T16:19:16;8.05;;;1.10;;
39452;SDS011;25154;-33.684;151.102;2023-04-03T16:24:19;7.00;;;1.08;;
39452;SDS011;25154;-33.684;151.102;2023-04-03T16:29:25;5.13;;;0.82;;
39452;SDS011;25154;-33.684;151.102;2023-04-03T16:34:29;6.28;;;1.15;;
39452;SDS011;25154;-33.684;151.102;2023-04-03T16:39:32;4.28;;;1.02;;
39452;SDS011;25154;-33.684;151.102;2023-04-03T16:44:36;8.05;;;1.45;;
39452;SDS011;25154;-33.684;151.102;2023-04-03T16:49:40;11.02;;;1.70;;
39452;SDS011;25154;-33.684;151.102;2023-04-03T16:54:42;7.60;;;1.10;;
39452;SDS011;25154;-33.684;151.102;2023-04-03T16:59:44;7.65;;;1.42;;
39452;SDS011;25154;-33.684;151.102;2023-04-03T17:04:47;10.98;;;1.50;;
39452;SDS011;25154;-33.684;151.102;2023-04-03T17:09:49;9.98;;;1.35;;
39452;SDS011;25154;-33.684;151.102;2023-04-03T17:14:53;7.30;;;1.13;;
39452;SDS011;25154;-33.684;151.102;2023-04-03T17:19:56;5.60;;;0.90;;
39452;SDS011;25154;-33.684;151.102;2023-04-03T17:24:59;6.40;;;1.13;;
39452;SDS011;25154;-33.684;151.102;2023-04-03T17:30:02;9.10;;;2.10;;
39452;SDS011;25154;-33.684;151.102;2023-04-03T17:35:07;18.33;;;1.13;;
39452;SDS011;25154;-33.684;151.102;2023-04-03T17:40:10;6.22;;;0.90;;
39452;SDS011;25154;-33.684;151.102;2023-04-03T17:45:14;6.35;;;0.93;;
39452;SDS011;25154;-33.684;151.102;2023-04-03T17:50:18;4.22;;;0.90;;
39452;SDS011;25154;-33.684;151.102;2023-04-03T17:55:21;9.82;;;1.35;;
39452;SDS011;25154;-33.684;151.102;2023-04-03T18:00:24;5.07;;;1.10;;
39452;SDS011;25154;-33.684;151.102;2023-04-03T18:05:27;5.78;;;1.23;;
39452;SDS011;25154;-33.684;151.102;2023-04-03T18:10:31;8.23;;;1.02;;
39452;SDS011;25154;-33.684;151.102;2023-04-03T18:15:36;9.27;;;1.27;;
39452;SDS011;25154;-33.684;151.102;2023-04-03T18:20:45;7.20;;;1.30;;
39452;SDS011;25154;-33.684;151.102;2023-04-03T18:25:49;8.75;;;1.50;;
39452;SDS011;25154;-33.684;151.102;2023-04-03T18:30:52;7.03;;;1.20;;
39452;SDS011;25154;-33.684;151.102;2023-04-03T18:35:55;7.18;;;1.10;;
39452;SDS011;25154;-33.684;151.102;2023-04-03T18:40:58;6.22;;;1.15;;
39452;SDS011;25154;-33.684;151.102;2023-04-03T18:46:02;8.05;;;1.38;;
39452;SDS011;25154;-33.684;151.102;2023-04-03T18:51:07;6.20;;;1.40;;
39452;SDS011;25154;-33.684;151.102;2023-04-03T18:56:11;6.30;;;1.45;;
39452;SDS011;25154;-33.684;151.102;2023-04-03T19:01:14;8.77;;;1.60;;
39452;SDS011;25154;-33.684;151.102;2023-04-03T19:06:16;9.95;;;1.50;;
39452;SDS011;25154;-33.684;151.102;2023-04-03T19:11:19;7.45;;;1.50;;
39452;SDS011;25154;-33.684;151.102;2023-04-03T19:16:22;12.73;;;1.83;;
39452;SDS011;25154;-33.684;151.102;2023-04-03T19:21:26;8.38;;;1.88;;
39452;SDS011;25154;-33.684;151.102;2023-04-03T19:26:30;11.48;;;1.63;;
39452;SDS011;25154;-33.684;151.102;2023-04-03T19:31:32;7.88;;;1.48;;
39452;SDS011;25154;-33.684;151.102;2023-04-03T19:36:36;5.32;;;1.50;;
39452;SDS011;25154;-33.684;151.102;2023-04-03T19:41:39;8.82;;;1.67;;
39452;SDS011;25154;-33.684;151.102;2023-04-03T19:46:45;5.38;;;1.48;;
39452;SDS011;25154;-33.684;151.102;2023-04-03T19:51:49;4.07;;;1.50;;
39452;SDS011;25154;-33.684;151.102;2023-04-03T19:56:53;6.03;;;1.88;;
39452;SDS011;25154;-33.684;151.102;2023-04-03T20:01:55;9.73;;;2.20;;
39452;SDS011;25154;-33.684;151.102;2023-04-03T20:06:58;9.48;;;2.03;;
39452;SDS011;25154;-33.684;151.102;2023-04-03T20:12:01;8.40;;;1.60;;
39452;SDS011;25154;-33.684;151.102;2023-04-03T20:17:04;11.48;;;2.28;;
39452;SDS011;25154;-33.684;151.102;2023-04-03T20:22:07;8.38;;;1.90;;
39452;SDS011;25154;-33.684;151.102;2023-04-03T20:27:11;11.38;;;1.98;;
39452;SDS011;25154;-33.684;151.102;2023-04-03T20:32:15;7.88;;;1.75;;
39452;SDS011;25154;-33.684;151.102;2023-04-03T20:37:18;8.68;;;1.83;;
39452;SDS011;25154;-33.684;151.102;2023-04-03T20:42:24;8.90;;;1.50;;
39452;SDS011;25154;-33.684;151.102;2023-04-03T20:47:27;6.65;;;1.80;;
39452;SDS011;25154;-33.684;151.102;2023-04-03T20:52:30;7.95;;;1.42;;
39452;SDS011;25154;-33.684;151.102;2023-04-03T20:57:33;5.20;;;1.52;;
39452;SDS011;25154;-33.684;151.102;2023-04-03T21:02:36;7.00;;;1.60;;
39452;SDS011;25154;-33.684;151.102;2023-04-03T21:24:14;11.30;;;1.73;;
39452;SDS011;25154;-33.684;151.102;2023-04-03T21:29:18;7.53;;;1.73;;
39452;SDS011;25154;-33.684;151.102;2023-04-03T21:34:20;11.63;;;2.05;;
39452;SDS011;25154;-33.684;151.102;2023-04-03T21:39:27;9.00;;;1.60;;
39452;SDS011;25154;-33.684;151.102;2023-04-03T21:44:29;16.38;;;2.65;;
39452;SDS011;25154;-33.684;151.102;2023-04-03T21:49:31;12.38;;;1.92;;
39452;SDS011;25154;-33.684;151.102;2023-04-03T21:54:34;9.98;;;1.95;;
39452;SDS011;25154;-33.684;151.102;2023-04-03T21:59:36;7.63;;;1.95;;
39452;SDS011;25154;-33.684;151.102;2023-04-03T22:04:39;8.50;;;1.88;;
39452;SDS011;25154;-33.684;151.102;2023-04-03T22:09:41;11.15;;;1.77;;
39452;SDS011;25154;-33.684;151.102;2023-04-03T22:14:43;8.32;;;1.45;;
39452;SDS011;25154;-33.684;151.102;2023-04-03T22:19:46;7.07;;;1.63;;
39452;SDS011;25154;-33.684;151.102;2023-04-03T22:24:49;9.20;;;1.92;;
39452;SDS011;25154;-33.684;151.102;2023-04-03T22:29:51;5.13;;;1.60;;
39452;SDS011;25154;-33.684;151.102;2023-04-03T22:34:54;7.88;;;2.28;;
39452;SDS011;25154;-33.684;151.102;2023-04-03T22:39:56;6.38;;;1.70;;
39452;SDS011;25154;-33.684;151.102;2023-04-03T22:44:58;8.50;;;1.73;;
39452;SDS011;25154;-33.684;151.102;2023-04-03T22:50:01;11.07;;;2.13;;
39452;SDS011;25154;-33.684;151.102;2023-04-03T22:55:04;10.85;;;1.48;;
39452;SDS011;25154;-33.684;151.102;2023-04-03T23:00:07;10.52;;;1.70;;
39452;SDS011;25154;-33.684;151.102;2023-04-03T23:05:10;11.73;;;2.28;;
39452;SDS011;25154;-33.684;151.102;2023-04-03T23:10:13;10.02;;;1.63;;
39452;SDS011;25154;-33.684;151.102;2023-04-03T23:15:18;7.25;;;1.10;;
39452;SDS011;25154;-33.684;151.102;2023-04-03T23:20:25;9.15;;;1.40;;
39452;SDS011;25154;-33.684;151.102;2023-04-03T23:25:27;5.28;;;1.10;;
39452;SDS011;25154;-33.684;151.102;2023-04-03T23:30:30;6.13;;;1.40;;
39452;SDS011;25154;-33.684;151.102;2023-04-03T23:35:33;8.18;;;1.65;;
39452;SDS011;25154;-33.684;151.102;2023-04-03T23:40:35;6.60;;;1.10;;
39452;SDS011;25154;-33.684;151.102;2023-04-03T23:45:38;4.07;;;1.00;;
39452;SDS011;25154;-33.684;151.102;2023-04-03T23:50:42;5.55;;;1.17;;
39452;SDS011;25154;-33.684;151.102;2023-04-03T23:55:44;8.30;;;1.42;;
